Ufo 3 — IUNV — position and weather

sailwx.info

Track history (hours):
 
Tides and Currents Weather Stations Pressure Air Temp Water Temp Dewpoint Dewpoint Depression Visibility Wind Speed Wind Dir Waves Ship Positions

Ufo 3

Last reported at 2015-Jul-04 16:32 UTC. Time now 2015-Jul-04 22:26 UTC.
Position N 44°09' E 009°39'.

Length 28 m.

Type: Passenger vessel. MMSI: 247031600.

Date/timePositionNaut miles runAvg speedWind from/ knotsBaromVisibWave heightAir tempDewpointWater temp
2015-Jul-04 16:32N 44°09' E 009°39'8 8.0
2015-Jul-04 15:33N 44°04' E 009°48'2 2.0
2015-Jul-04 14:33N 44°03' E 009°50'4 3.7
2015-Jul-04 13:33N 44°05' E 009°46'6 5.4
2015-Jul-04 12:26N 44°09' E 009°39'4 2.3
2015-Jul-04 10:31N 44°06' E 009°44'8 8.0
2015-Jul-04 09:33N 44°04' E 009°54'3 3.3
2015-Jul-04 08:33N 44°03' E 009°50'0 0.0
2015-Jul-04 07:33N 44°03' E 009°50'0 0.4
2015-Jul-04 06:33N 44°03' E 009°51'0 0.0
2015-Jul-04 05:33N 44°03' E 009°51'3 0.2
2015-Jul-03 15:33N 44°04' E 009°54'3 3.2
2015-Jul-03 14:33N 44°03' E 009°50'0 0.0
2015-Jul-03 13:33N 44°03' E 009°50'0 0.0
2015-Jul-03 12:33N 44°03' E 009°50'0 0.1
2015-Jul-03 11:33N 44°03' E 009°50'0 0.0
2015-Jul-03 10:33N 44°03' E 009°50'3 3.4
2015-Jul-03 09:33N 44°04' E 009°55'3 3.4
2015-Jul-03 08:33N 44°03' E 009°50'0 0.0
2015-Jul-03 07:33N 44°03' E 009°50'3 3.4
2015-Jul-03 06:33N 44°04' E 009°55'0 0.0
2015-Jul-01 16:33N 44°05' E 009°54'3 3.4
2015-Jul-01 15:33N 44°03' E 009°50'0 0.1
2015-Jul-01 14:33N 44°03' E 009°50'0 0.1
2015-Jul-01 13:33N 44°03' E 009°50'0 0.0
2015-Jul-01 12:33N 44°03' E 009°50'0 0.0
2015-Jul-01 11:33N 44°03' E 009°50'1 0.8
2015-Jul-01 10:33N 44°02' E 009°50'1 0.8
2015-Jul-01 09:33N 44°03' E 009°50'1 0.8
2015-Jul-01 08:33N 44°02' E 009°51'1 0.8
2015-Jul-01 07:33N 44°03' E 009°50'0 0.4
2015-Jul-01 06:33N 44°03' E 009°51'0 0.0
2015-Jul-01 05:33N 44°03' E 009°51'0 0.0
2015-Jun-30 16:09N 44°03' E 009°51'6 9.6
2015-Jun-30 15:33N 44°05' E 009°44'5 3.7
2015-Jun-30 14:19N 44°09' E 009°39'4 5.2
2015-Jun-30 13:28N 44°06' E 009°44'5 5.7
2015-Jun-30 12:33N 44°03' E 009°50'0 0.0
2015-Jun-30 11:33N 44°03' E 009°50'6 2.7
2015-Jun-30 09:14N 44°07' E 009°43'6 8.1
2015-Jun-30 08:33N 44°03' E 009°49'3 2.7
2015-Jun-30 07:33N 44°06' E 009°50'0 0.3
2015-Jun-30 06:33N 44°06' E 009°50'3 2.7
2015-Jun-30 05:33N 44°03' E 009°51'0 0.0
2015-Jun-29 22:10N 44°03' E 009°51'0 0.0
2015-Jun-29 21:33N 44°03' E 009°51'0 0.0
2015-Jun-29 20:33N 44°03' E 009°51'0 0.0
2015-Jun-29 19:33N 44°03' E 009°51'0 0.0
2015-Jun-29 18:34N 44°03' E 009°51'0 0.0
2015-Jun-29 17:33N 44°03' E 009°51'0 0.0
2015-Jun-29 16:33N 44°03' E 009°51'0 0.0
2015-Jun-29 15:33N 44°03' E 009°51'0 0.0
2015-Jun-29 14:34N 44°03' E 009°51'0 0.0
2015-Jun-29 13:33N 44°03' E 009°51'5 4.6
2015-Jun-29 12:33N 44°04' E 009°45'5 5.4
2015-Jun-29 11:33N 44°08' E 009°39'4 1.9
2015-Jun-29 09:31N 44°06' E 009°44'0 0.3
2015-Jun-29 08:28N 44°06' E 009°44'4 4.5
2015-Jun-29 07:33N 44°06' E 009°50'3 3.1
2015-Jun-29 06:33N 44°03' E 009°50'0 0.4
2015-Jun-29 05:33N 44°03' E 009°51'10 0.7
2015-Jun-28 14:22N 44°09' E 009°39'4 2.3
2015-Jun-28 12:28N 44°06' E 009°44'5 5.7
2015-Jun-28 11:33N 44°03' E 009°50'1 0.9
2015-Jun-28 10:33N 44°02' E 009°51'5 5.2
2015-Jun-28 09:33N 44°05' E 009°44'5 3.9
2015-Jun-28 08:15N 44°08' E 009°39'1 1.3
2015-Jun-28 07:33N 44°07' E 009°38'1010.3
2015-Jun-28 06:33N 44°03' E 009°51'0 0.0
2015-Jun-28 05:33N 44°03' E 009°51'0 0.0
2015-Jun-28 04:33N 44°03' E 009°51'3 0.2
2015-Jun-27 16:33N 44°05' E 009°54'3 3.3
2015-Jun-27 15:34N 44°03' E 009°50'0 0.0
2015-Jun-27 14:33N 44°03' E 009°50'6 5.1
2015-Jun-27 13:23N 44°06' E 009°43'1 0.3
2015-Jun-27 10:22N 44°06' E 009°44'8 9.5
2015-Jun-27 09:33N 44°04' E 009°55'3 3.4
2015-Jun-27 08:34N 44°03' E 009°50'3 3.4
2015-Jun-27 07:33N 44°04' E 009°54'3 2.9
2015-Jun-27 06:33N 44°03' E 009°51'1 1.0
2015-Jun-27 05:33N 44°03' E 009°50'0 0.0
2015-Jun-26 15:33N 44°03' E 009°51'10 4.9
2015-Jun-26 13:30N 44°09' E 009°39'4 3.7
2015-Jun-26 12:29N 44°06' E 009°43'4 3.8
2015-Jun-26 11:32N 44°08' E 009°39'1 0.6
2015-Jun-26 10:21N 44°08' E 009°40'1 0.4
2015-Jun-26 07:33N 44°07' E 009°41'8 7.8
2015-Jun-26 06:34N 44°03' E 009°50'0 0.4
2015-Jun-26 05:34N 44°03' E 009°51'4 0.3
2015-Jun-25 17:33N 44°04' E 009°46'6 6.0
2015-Jun-25 16:31N 44°09' E 009°39'7 7.4
2015-Jun-25 15:33N 44°04' E 009°47'3 2.6
2015-Jun-25 14:33N 44°03' E 009°50'3 3.4
2015-Jun-25 13:34N 44°04' E 009°46'6 2.9
2015-Jun-25 11:28N 44°08' E 009°39'4 4.4
2015-Jun-25 10:31N 44°06' E 009°44'8 7.9
2015-Jun-25 09:33N 44°04' E 009°54'3 3.3
2015-Jun-25 08:33N 44°03' E 009°50'3 3.3
2015-Jun-25 07:33N 44°04' E 009°54'3 2.8
2015-Jun-25 06:33N 44°03' E 009°51'0 0.4
2015-Jun-25 05:33N 44°03' E 009°51'  
Track history (hours):
 
Tides and Currents Weather Stations Pressure Air Temp Water Temp Dewpoint Dewpoint Depression Visibility Wind Speed Wind Dir Waves Ship Positions

Ufo 3

Last reported at 2015-Jul-04 16:32 UTC. Time now 2015-Jul-04 22:26 UTC.
Position N 44°09' E 009°39'.

Length 28 m.

Type: Passenger vessel. MMSI: 247031600.

Date/timePositionNaut miles runAvg speedWind from/ knotsBaromVisibWave heightAir tempDewpointWater temp
2015-Jul-04 16:32N 44°09' E 009°39'8 8.0
2015-Jul-04 15:33N 44°04' E 009°48'2 2.0
2015-Jul-04 14:33N 44°03' E 009°50'4 3.7
2015-Jul-04 13:33N 44°05' E 009°46'6 5.4
2015-Jul-04 12:26N 44°09' E 009°39'4 2.3
2015-Jul-04 10:31N 44°06' E 009°44'8 8.0
2015-Jul-04 09:33N 44°04' E 009°54'3 3.3
2015-Jul-04 08:33N 44°03' E 009°50'0 0.0
2015-Jul-04 07:33N 44°03' E 009°50'0 0.4
2015-Jul-04 06:33N 44°03' E 009°51'0 0.0
2015-Jul-04 05:33N 44°03' E 009°51'3 0.2
2015-Jul-03 15:33N 44°04' E 009°54'3 3.2
2015-Jul-03 14:33N 44°03' E 009°50'0 0.0
2015-Jul-03 13:33N 44°03' E 009°50'0 0.0
2015-Jul-03 12:33N 44°03' E 009°50'0 0.1
2015-Jul-03 11:33N 44°03' E 009°50'0 0.0
2015-Jul-03 10:33N 44°03' E 009°50'3 3.4
2015-Jul-03 09:33N 44°04' E 009°55'3 3.4
2015-Jul-03 08:33N 44°03' E 009°50'0 0.0
2015-Jul-03 07:33N 44°03' E 009°50'3 3.4
2015-Jul-03 06:33N 44°04' E 009°55'0 0.0
2015-Jul-01 16:33N 44°05' E 009°54'3 3.4
2015-Jul-01 15:33N 44°03' E 009°50'0 0.1
2015-Jul-01 14:33N 44°03' E 009°50'0 0.1
2015-Jul-01 13:33N 44°03' E 009°50'0 0.0
2015-Jul-01 12:33N 44°03' E 009°50'0 0.0
2015-Jul-01 11:33N 44°03' E 009°50'1 0.8
2015-Jul-01 10:33N 44°02' E 009°50'1 0.8
2015-Jul-01 09:33N 44°03' E 009°50'1 0.8
2015-Jul-01 08:33N 44°02' E 009°51'1 0.8
2015-Jul-01 07:33N 44°03' E 009°50'0 0.4
2015-Jul-01 06:33N 44°03' E 009°51'0 0.0
2015-Jul-01 05:33N 44°03' E 009°51'0 0.0
2015-Jun-30 16:09N 44°03' E 009°51'6 9.6
2015-Jun-30 15:33N 44°05' E 009°44'5 3.7
2015-Jun-30 14:19N 44°09' E 009°39'4 5.2
2015-Jun-30 13:28N 44°06' E 009°44'5 5.7
2015-Jun-30 12:33N 44°03' E 009°50'0 0.0
2015-Jun-30 11:33N 44°03' E 009°50'6 2.7
2015-Jun-30 09:14N 44°07' E 009°43'6 8.1
2015-Jun-30 08:33N 44°03' E 009°49'3 2.7
2015-Jun-30 07:33N 44°06' E 009°50'0 0.3
2015-Jun-30 06:33N 44°06' E 009°50'3 2.7
2015-Jun-30 05:33N 44°03' E 009°51'0 0.0
2015-Jun-29 22:10N 44°03' E 009°51'0 0.0
2015-Jun-29 21:33N 44°03' E 009°51'0 0.0
2015-Jun-29 20:33N 44°03' E 009°51'0 0.0
2015-Jun-29 19:33N 44°03' E 009°51'0 0.0
2015-Jun-29 18:34N 44°03' E 009°51'0 0.0
2015-Jun-29 17:33N 44°03' E 009°51'0 0.0
2015-Jun-29 16:33N 44°03' E 009°51'0 0.0
2015-Jun-29 15:33N 44°03' E 009°51'0 0.0
2015-Jun-29 14:34N 44°03' E 009°51'0 0.0
2015-Jun-29 13:33N 44°03' E 009°51'5 4.6
2015-Jun-29 12:33N 44°04' E 009°45'5 5.4
2015-Jun-29 11:33N 44°08' E 009°39'4 1.9
2015-Jun-29 09:31N 44°06' E 009°44'0 0.3
2015-Jun-29 08:28N 44°06' E 009°44'4 4.5
2015-Jun-29 07:33N 44°06' E 009°50'3 3.1
2015-Jun-29 06:33N 44°03' E 009°50'0 0.4
2015-Jun-29 05:33N 44°03' E 009°51'10 0.7
2015-Jun-28 14:22N 44°09' E 009°39'4 2.3
2015-Jun-28 12:28N 44°06' E 009°44'5 5.7
2015-Jun-28 11:33N 44°03' E 009°50'1 0.9
2015-Jun-28 10:33N 44°02' E 009°51'5 5.2
2015-Jun-28 09:33N 44°05' E 009°44'5 3.9
2015-Jun-28 08:15N 44°08' E 009°39'1 1.3
2015-Jun-28 07:33N 44°07' E 009°38'1010.3
2015-Jun-28 06:33N 44°03' E 009°51'0 0.0
2015-Jun-28 05:33N 44°03' E 009°51'0 0.0
2015-Jun-28 04:33N 44°03' E 009°51'3 0.2
2015-Jun-27 16:33N 44°05' E 009°54'3 3.3
2015-Jun-27 15:34N 44°03' E 009°50'0 0.0
2015-Jun-27 14:33N 44°03' E 009°50'6 5.1
2015-Jun-27 13:23N 44°06' E 009°43'1 0.3
2015-Jun-27 10:22N 44°06' E 009°44'8 9.5
2015-Jun-27 09:33N 44°04' E 009°55'3 3.4
2015-Jun-27 08:34N 44°03' E 009°50'3 3.4
2015-Jun-27 07:33N 44°04' E 009°54'3 2.9
2015-Jun-27 06:33N 44°03' E 009°51'1 1.0
2015-Jun-27 05:33N 44°03' E 009°50'0 0.0
2015-Jun-26 15:33N 44°03' E 009°51'10 4.9
2015-Jun-26 13:30N 44°09' E 009°39'4 3.7
2015-Jun-26 12:29N 44°06' E 009°43'4 3.8
2015-Jun-26 11:32N 44°08' E 009°39'1 0.6
2015-Jun-26 10:21N 44°08' E 009°40'1 0.4
2015-Jun-26 07:33N 44°07' E 009°41'8 7.8
2015-Jun-26 06:34N 44°03' E 009°50'0 0.4
2015-Jun-26 05:34N 44°03' E 009°51'4 0.3
2015-Jun-25 17:33N 44°04' E 009°46'6 6.0
2015-Jun-25 16:31N 44°09' E 009°39'7 7.4
2015-Jun-25 15:33N 44°04' E 009°47'3 2.6
2015-Jun-25 14:33N 44°03' E 009°50'3 3.4
2015-Jun-25 13:34N 44°04' E 009°46'6 2.9
2015-Jun-25 11:28N 44°08' E 009°39'4 4.4
2015-Jun-25 10:31N 44°06' E 009°44'8 7.9
2015-Jun-25 09:33N 44°04' E 009°54'3 3.3
2015-Jun-25 08:33N 44°03' E 009°50'3 3.3
2015-Jun-25 07:33N 44°04' E 009°54'3 2.8
2015-Jun-25 06:33N 44°03' E 009°51'0 0.4
2015-Jun-25 05:33N 44°03' E 009°51'  

Dump ship's entire track history